sensor_id;sensor_type;location;lat;lon;timestamp;P1;durP1;ratioP1;P2;durP2;ratioP2
51491;SDS011;37569;50.548;8.778;2023-03-20T00:04:50;6.4;;;4.9;;
51491;SDS011;37569;50.548;8.778;2023-03-20T00:09:50;7.1;;;5.1;;
51491;SDS011;37569;50.548;8.778;2023-03-20T00:14:51;7.1;;;5.1;;
51491;SDS011;37569;50.548;8.778;2023-03-20T00:19:51;7;;;5.7;;
51491;SDS011;37569;50.548;8.778;2023-03-20T00:24:52;5.9;;;5.2;;
51491;SDS011;37569;50.548;8.778;2023-03-20T00:29:52;7.2;;;6;;
51491;SDS011;37569;50.548;8.778;2023-03-20T00:34:52;7.6;;;5.5;;
51491;SDS011;37569;50.548;8.778;2023-03-20T00:39:53;7;;;5.4;;
51491;SDS011;37569;50.548;8.778;2023-03-20T00:44:53;6.8;;;5.4;;
51491;SDS011;37569;50.548;8.778;2023-03-20T00:49:53;5.7;;;5.2;;
51491;SDS011;37569;50.548;8.778;2023-03-20T00:54:54;7.7;;;5.3;;
51491;SDS011;37569;50.548;8.778;2023-03-20T00:59:56;6.7;;;5.4;;
51491;SDS011;37569;50.548;8.778;2023-03-20T01:04:55;7.7;;;5.4;;
51491;SDS011;37569;50.548;8.778;2023-03-20T01:09:55;6.6;;;5.9;;
51491;SDS011;37569;50.548;8.778;2023-03-20T01:14:56;6;;;5.4;;
51491;SDS011;37569;50.548;8.778;2023-03-20T01:19:56;6.3;;;5.7;;
51491;SDS011;37569;50.548;8.778;2023-03-20T01:24:56;7.5;;;5.9;;
51491;SDS011;37569;50.548;8.778;2023-03-20T01:29:57;7.1;;;6.2;;
51491;SDS011;37569;50.548;8.778;2023-03-20T01:34:57;7.5;;;6.7;;
51491;SDS011;37569;50.548;8.778;2023-03-20T01:39:58;7.5;;;6.7;;
51491;SDS011;37569;50.548;8.778;2023-03-20T01:44:58;9.1;;;7.4;;
51491;SDS011;37569;50.548;8.778;2023-03-20T01:50:13;10.1;;;8.2;;
51491;SDS011;37569;50.548;8.778;2023-03-20T01:54:59;10.1;;;8.6;;
51491;SDS011;37569;50.548;8.778;2023-03-20T02:00:00;11;;;8.8;;
51491;SDS011;37569;50.548;8.778;2023-03-20T02:05:00;13.1;;;9.4;;
51491;SDS011;37569;50.548;8.778;2023-03-20T02:10:00;12.4;;;10.2;;
51491;SDS011;37569;50.548;8.778;2023-03-20T02:15:00;12.4;;;10.1;;
51491;SDS011;37569;50.548;8.778;2023-03-20T02:20:03;12.8;;;10.3;;
51491;SDS011;37569;50.548;8.778;2023-03-20T02:30:08;17.4;;;12.5;;
51491;SDS011;37569;50.548;8.778;2023-03-20T02:35:14;18.4;;;13.5;;
51491;SDS011;37569;50.548;8.778;2023-03-20T02:40:05;23.1;;;14.3;;
51491;SDS011;37569;50.548;8.778;2023-03-20T02:45:06;23.4;;;15.2;;
51491;SDS011;37569;50.548;8.778;2023-03-20T02:50:06;23.9;;;15.7;;
51491;SDS011;37569;50.548;8.778;2023-03-20T02:55:07;26.2;;;16;;
51491;SDS011;37569;50.548;8.778;2023-03-20T03:00:05;29.3;;;17.1;;
51491;SDS011;37569;50.548;8.778;2023-03-20T03:05:06;30.9;;;17.8;;
51491;SDS011;37569;50.548;8.778;2023-03-20T03:10:06;27.1;;;17.5;;
51491;SDS011;37569;50.548;8.778;2023-03-20T03:15:06;30.5;;;17.8;;
51491;SDS011;37569;50.548;8.778;2023-03-20T03:20:07;30.8;;;18.2;;
51491;SDS011;37569;50.548;8.778;2023-03-20T03:25:08;31.6;;;18.2;;
51491;SDS011;37569;50.548;8.778;2023-03-20T03:30:09;29.6;;;18.1;;
51491;SDS011;37569;50.548;8.778;2023-03-20T03:35:09;29.9;;;18.9;;
51491;SDS011;37569;50.548;8.778;2023-03-20T03:40:10;30.9;;;18.1;;
51491;SDS011;37569;50.548;8.778;2023-03-20T03:45:09;28.3;;;18.3;;
51491;SDS011;37569;50.548;8.778;2023-03-20T03:50:09;32.5;;;19;;
51491;SDS011;37569;50.548;8.778;2023-03-20T03:55:10;32.5;;;18.7;;
51491;SDS011;37569;50.548;8.778;2023-03-20T04:00:11;32.3;;;19;;
51491;SDS011;37569;50.548;8.778;2023-03-20T04:05:10;34.1;;;18.6;;
51491;SDS011;37569;50.548;8.778;2023-03-20T04:10:10;33.7;;;20.3;;
51491;SDS011;37569;50.548;8.778;2023-03-20T04:15:11;40.4;;;22.3;;
51491;SDS011;37569;50.548;8.778;2023-03-20T04:20:11;40.1;;;22.2;;
51491;SDS011;37569;50.548;8.778;2023-03-20T04:25:14;39.3;;;22.8;;
51491;SDS011;37569;50.548;8.778;2023-03-20T04:30:12;41.6;;;23.3;;
51491;SDS011;37569;50.548;8.778;2023-03-20T04:35:12;46.2;;;24.7;;
51491;SDS011;37569;50.548;8.778;2023-03-20T04:40:13;46.7;;;25.4;;
51491;SDS011;37569;50.548;8.778;2023-03-20T04:45:13;53.5;;;26.9;;
51491;SDS011;37569;50.548;8.778;2023-03-20T04:50:14;51.1;;;26.4;;
51491;SDS011;37569;50.548;8.778;2023-03-20T04:55:14;51.6;;;26.6;;
51491;SDS011;37569;50.548;8.778;2023-03-20T05:00:15;51.4;;;24.9;;
51491;SDS011;37569;50.548;8.778;2023-03-20T05:05:15;50.5;;;25;;
51491;SDS011;37569;50.548;8.778;2023-03-20T05:10:16;46.8;;;23.2;;
51491;SDS011;37569;50.548;8.778;2023-03-20T05:15:16;47.6;;;23.7;;
51491;SDS011;37569;50.548;8.778;2023-03-20T05:20:16;47.9;;;24;;
51491;SDS011;37569;50.548;8.778;2023-03-20T05:25:17;49.9;;;23.6;;
51491;SDS011;37569;50.548;8.778;2023-03-20T05:30:17;46.3;;;23.2;;
51491;SDS011;37569;50.548;8.778;2023-03-20T05:35:18;43.3;;;20.5;;
51491;SDS011;37569;50.548;8.778;2023-03-20T05:40:18;35.4;;;19.1;;
51491;SDS011;37569;50.548;8.778;2023-03-20T05:45:18;35.7;;;18.4;;
51491;SDS011;37569;50.548;8.778;2023-03-20T05:50:19;37.2;;;19.3;;
51491;SDS011;37569;50.548;8.778;2023-03-20T05:55:19;36.3;;;19.2;;
51491;SDS011;37569;50.548;8.778;2023-03-20T06:00:20;38;;;20.1;;
51491;SDS011;37569;50.548;8.778;2023-03-20T06:05:20;36.6;;;19.5;;
51491;SDS011;37569;50.548;8.778;2023-03-20T06:10:20;36.2;;;20.1;;
51491;SDS011;37569;50.548;8.778;2023-03-20T06:15:21;35.1;;;18.2;;
51491;SDS011;37569;50.548;8.778;2023-03-20T06:20:21;33.9;;;18.3;;
51491;SDS011;37569;50.548;8.778;2023-03-20T06:25:22;32.7;;;18.9;;
51491;SDS011;37569;50.548;8.778;2023-03-20T06:30:22;32.5;;;18.1;;
51491;SDS011;37569;50.548;8.778;2023-03-20T06:35:22;33;;;18.2;;
51491;SDS011;37569;50.548;8.778;2023-03-20T06:40:23;32.6;;;18;;
51491;SDS011;37569;50.548;8.778;2023-03-20T06:45:23;32.7;;;19.2;;
51491;SDS011;37569;50.548;8.778;2023-03-20T06:50:24;30.7;;;18.7;;
51491;SDS011;37569;50.548;8.778;2023-03-20T06:55:24;31.6;;;18.6;;
51491;SDS011;37569;50.548;8.778;2023-03-20T07:00:24;33.4;;;19.4;;
51491;SDS011;37569;50.548;8.778;2023-03-20T07:05:25;32.3;;;19.2;;
51491;SDS011;37569;50.548;8.778;2023-03-20T07:10:25;31.3;;;18.8;;
51491;SDS011;37569;50.548;8.778;2023-03-20T07:15:26;31.7;;;18.7;;
51491;SDS011;37569;50.548;8.778;2023-03-20T07:20:26;27.9;;;17.8;;
51491;SDS011;37569;50.548;8.778;2023-03-20T07:25:26;31.5;;;18.9;;
51491;SDS011;37569;50.548;8.778;2023-03-20T07:30:27;38.4;;;22;;
51491;SDS011;37569;50.548;8.778;2023-03-20T07:35:27;41.5;;;23.5;;
51491;SDS011;37569;50.548;8.778;2023-03-20T07:40:28;39.7;;;22.3;;
51491;SDS011;37569;50.548;8.778;2023-03-20T07:45:28;38.2;;;22.4;;
51491;SDS011;37569;50.548;8.778;2023-03-20T07:50:29;38;;;23.2;;
51491;SDS011;37569;50.548;8.778;2023-03-20T07:55:29;37;;;22.2;;
51491;SDS011;37569;50.548;8.778;2023-03-20T08:00:30;35.7;;;21.8;;
51491;SDS011;37569;50.548;8.778;2023-03-20T08:05:30;33.8;;;21.2;;
51491;SDS011;37569;50.548;8.778;2023-03-20T08:10:30;34.8;;;21.2;;
51491;SDS011;37569;50.548;8.778;2023-03-20T08:15:31;37.6;;;22.4;;
51491;SDS011;37569;50.548;8.778;2023-03-20T08:20:31;32.3;;;20.8;;
51491;SDS011;37569;50.548;8.778;2023-03-20T08:25:32;32.4;;;20.1;;
51491;SDS011;37569;50.548;8.778;2023-03-20T08:30:32;33.1;;;21.3;;
51491;SDS011;37569;50.548;8.778;2023-03-20T08:35:33;29.6;;;19.4;;
51491;SDS011;37569;50.548;8.778;2023-03-20T08:40:33;28.6;;;19.3;;
51491;SDS011;37569;50.548;8.778;2023-03-20T08:45:34;25.9;;;18.4;;
51491;SDS011;37569;50.548;8.778;2023-03-20T08:50:34;25;;;17.5;;
51491;SDS011;37569;50.548;8.778;2023-03-20T08:55:35;26.6;;;17;;
51491;SDS011;37569;50.548;8.778;2023-03-20T09:00:35;28;;;18.8;;
51491;SDS011;37569;50.548;8.778;2023-03-20T09:05:36;25.6;;;18.4;;
51491;SDS011;37569;50.548;8.778;2023-03-20T09:10:36;28.6;;;19.2;;
51491;SDS011;37569;50.548;8.778;2023-03-20T09:15:37;27.6;;;18.4;;
51491;SDS011;37569;50.548;8.778;2023-03-20T09:20:37;24;;;17.4;;
51491;SDS011;37569;50.548;8.778;2023-03-20T09:25:38;24.4;;;17.1;;
51491;SDS011;37569;50.548;8.778;2023-03-20T09:30:38;23.4;;;16.4;;
51491;SDS011;37569;50.548;8.778;2023-03-20T09:35:39;19.9;;;14.7;;
51491;SDS011;37569;50.548;8.778;2023-03-20T09:40:45;19.8;;;14.3;;
51491;SDS011;37569;50.548;8.778;2023-03-20T09:45:42;20.9;;;14.9;;
51491;SDS011;37569;50.548;8.778;2023-03-20T09:50:41;18.7;;;13.7;;
51491;SDS011;37569;50.548;8.778;2023-03-20T09:55:41;18.4;;;12.7;;
51491;SDS011;37569;50.548;8.778;2023-03-20T10:00:43;16.9;;;12.1;;
51491;SDS011;37569;50.548;8.778;2023-03-20T10:05:44;16.8;;;12.5;;
51491;SDS011;37569;50.548;8.778;2023-03-20T10:10:45;15.5;;;11.7;;
51491;SDS011;37569;50.548;8.778;2023-03-20T10:15:45;15.6;;;11.7;;
51491;SDS011;37569;50.548;8.778;2023-03-20T10:20:45;15.5;;;11.7;;
51491;SDS011;37569;50.548;8.778;2023-03-20T10:25:45;16.4;;;12.5;;
51491;SDS011;37569;50.548;8.778;2023-03-20T10:30:48;16.6;;;11.9;;
51491;SDS011;37569;50.548;8.778;2023-03-20T10:35:47;16.9;;;12;;
51491;SDS011;37569;50.548;8.778;2023-03-20T10:40:46;15.6;;;11.9;;
51491;SDS011;37569;50.548;8.778;2023-03-20T10:45:47;16.7;;;11.7;;
51491;SDS011;37569;50.548;8.778;2023-03-20T10:50:49;13.6;;;10.2;;
51491;SDS011;37569;50.548;8.778;2023-03-20T10:55:48;13.3;;;10.4;;
51491;SDS011;37569;50.548;8.778;2023-03-20T11:00:49;14.7;;;11.3;;
51491;SDS011;37569;50.548;8.778;2023-03-20T11:05:51;15.5;;;11.1;;
51491;SDS011;37569;50.548;8.778;2023-03-20T11:10:56;15.9;;;11.5;;
51491;SDS011;37569;50.548;8.778;2023-03-20T11:15:50;15.1;;;11;;
51491;SDS011;37569;50.548;8.778;2023-03-20T11:20:51;16.3;;;11.4;;
51491;SDS011;37569;50.548;8.778;2023-03-20T11:25:52;16.2;;;11.6;;
51491;SDS011;37569;50.548;8.778;2023-03-20T11:30:56;15.9;;;10.9;;
51491;SDS011;37569;50.548;8.778;2023-03-20T11:35:53;14.2;;;10.1;;
51491;SDS011;37569;50.548;8.778;2023-03-20T11:40:53;15.3;;;10.7;;
51491;SDS011;37569;50.548;8.778;2023-03-20T11:45:54;15.9;;;11.5;;
51491;SDS011;37569;50.548;8.778;2023-03-20T11:50:56;19.9;;;14.2;;
51491;SDS011;37569;50.548;8.778;2023-03-20T11:56:00;18.9;;;13.3;;
51491;SDS011;37569;50.548;8.778;2023-03-20T12:00:55;14.6;;;10.5;;
51491;SDS011;37569;50.548;8.778;2023-03-20T12:05:57;10.4;;;7.9;;
51491;SDS011;37569;50.548;8.778;2023-03-20T12:10:58;9.2;;;7.2;;
51491;SDS011;37569;50.548;8.778;2023-03-20T12:15:58;9.1;;;6.7;;
51491;SDS011;37569;50.548;8.778;2023-03-20T12:21:02;7.8;;;6.2;;
51491;SDS011;37569;50.548;8.778;2023-03-20T12:26:00;9.7;;;6.4;;
51491;SDS011;37569;50.548;8.778;2023-03-20T12:31:03;7.4;;;6.1;;
51491;SDS011;37569;50.548;8.778;2023-03-20T12:36:00;6.7;;;5.3;;
51491;SDS011;37569;50.548;8.778;2023-03-20T12:41:03;5;;;3.4;;
51491;SDS011;37569;50.548;8.778;2023-03-20T12:46:02;3.6;;;3.2;;
51491;SDS011;37569;50.548;8.778;2023-03-20T12:51:03;4.7;;;3.8;;
51491;SDS011;37569;50.548;8.778;2023-03-20T12:56:05;4.8;;;3.4;;
51491;SDS011;37569;50.548;8.778;2023-03-20T13:01:04;4.4;;;2.9;;
51491;SDS011;37569;50.548;8.778;2023-03-20T13:06:06;3.5;;;3.2;;
51491;SDS011;37569;50.548;8.778;2023-03-20T13:11:06;5;;;2.9;;
51491;SDS011;37569;50.548;8.778;2023-03-20T13:16:08;3.3;;;2.7;;
51491;SDS011;37569;50.548;8.778;2023-03-20T13:21:07;2.9;;;2.5;;
51491;SDS011;37569;50.548;8.778;2023-03-20T13:26:11;2.5;;;2.2;;
51491;SDS011;37569;50.548;8.778;2023-03-20T13:31:12;2.7;;;2.3;;
51491;SDS011;37569;50.548;8.778;2023-03-20T13:36:10;4.3;;;2.2;;
51491;SDS011;37569;50.548;8.778;2023-03-20T13:41:08;2.9;;;2.1;;
51491;SDS011;37569;50.548;8.778;2023-03-20T13:46:09;3.7;;;2.3;;
51491;SDS011;37569;50.548;8.778;2023-03-20T13:51:12;2.9;;;2.3;;
51491;SDS011;37569;50.548;8.778;2023-03-20T13:56:11;3.4;;;2.3;;
51491;SDS011;37569;50.548;8.778;2023-03-20T14:01:13;3.1;;;2.3;;
51491;SDS011;37569;50.548;8.778;2023-03-20T14:06:16;2.7;;;2.4;;
51491;SDS011;37569;50.548;8.778;2023-03-20T14:11:13;3.7;;;2.4;;
51491;SDS011;37569;50.548;8.778;2023-03-20T14:16:13;3.2;;;2.4;;
51491;SDS011;37569;50.548;8.778;2023-03-20T14:21:14;3.9;;;2.3;;
51491;SDS011;37569;50.548;8.778;2023-03-20T14:26:18;2.6;;;1.8;;
51491;SDS011;37569;50.548;8.778;2023-03-20T14:31:20;3;;;1.8;;
51491;SDS011;37569;50.548;8.778;2023-03-20T14:36:17;2.7;;;2;;
51491;SDS011;37569;50.548;8.778;2023-03-20T14:41:18;9.1;;;5.3;;
51491;SDS011;37569;50.548;8.778;2023-03-20T14:46:17;5.6;;;3.6;;
51491;SDS011;37569;50.548;8.778;2023-03-20T14:51:20;10;;;5.4;;
51491;SDS011;37569;50.548;8.778;2023-03-20T14:56:19;9.6;;;4.9;;
51491;SDS011;37569;50.548;8.778;2023-03-20T15:01:27;4.3;;;2.5;;
51491;SDS011;37569;50.548;8.778;2023-03-20T15:06:20;2.9;;;2.3;;
51491;SDS011;37569;50.548;8.778;2023-03-20T15:11:19;3.9;;;2.2;;
51491;SDS011;37569;50.548;8.778;2023-03-20T15:16:28;3.4;;;2.4;;
51491;SDS011;37569;50.548;8.778;2023-03-20T15:21:26;3.4;;;2.5;;
51491;SDS011;37569;50.548;8.778;2023-03-20T15:26:21;3.6;;;2.3;;
51491;SDS011;37569;50.548;8.778;2023-03-20T15:31:24;2.5;;;2.3;;
51491;SDS011;37569;50.548;8.778;2023-03-20T15:36:24;5.1;;;2.6;;
51491;SDS011;37569;50.548;8.778;2023-03-20T15:41:24;2.4;;;2.2;;
51491;SDS011;37569;50.548;8.778;2023-03-20T15:46:25;4.1;;;2.2;;
51491;SDS011;37569;50.548;8.778;2023-03-20T15:51:25;3.2;;;2;;
51491;SDS011;37569;50.548;8.778;2023-03-20T15:56:25;3.2;;;2.2;;
51491;SDS011;37569;50.548;8.778;2023-03-20T16:01:27;4.1;;;2.7;;
51491;SDS011;37569;50.548;8.778;2023-03-20T16:06:26;4.1;;;2.7;;
51491;SDS011;37569;50.548;8.778;2023-03-20T16:11:34;6.2;;;3.5;;
51491;SDS011;37569;50.548;8.778;2023-03-20T16:16:27;4.3;;;3.3;;
51491;SDS011;37569;50.548;8.778;2023-03-20T16:21:28;4.2;;;3.1;;
51491;SDS011;37569;50.548;8.778;2023-03-20T16:26:28;4.9;;;2.9;;
51491;SDS011;37569;50.548;8.778;2023-03-20T16:31:29;5.1;;;3.2;;
51491;SDS011;37569;50.548;8.778;2023-03-20T16:36:29;4.4;;;2.9;;
51491;SDS011;37569;50.548;8.778;2023-03-20T16:41:30;5.3;;;3.3;;
51491;SDS011;37569;50.548;8.778;2023-03-20T16:46:30;4.3;;;3;;
51491;SDS011;37569;50.548;8.778;2023-03-20T16:51:30;5.4;;;3.1;;
51491;SDS011;37569;50.548;8.778;2023-03-20T16:56:32;5.4;;;2.8;;
51491;SDS011;37569;50.548;8.778;2023-03-20T17:01:31;5.2;;;3;;
51491;SDS011;37569;50.548;8.778;2023-03-20T17:06:37;4.8;;;2.7;;
51491;SDS011;37569;50.548;8.778;2023-03-20T17:11:33;8.9;;;5.4;;
51491;SDS011;37569;50.548;8.778;2023-03-20T17:16:33;5.1;;;3.2;;
51491;SDS011;37569;50.548;8.778;2023-03-20T17:21:33;4.1;;;3.3;;
51491;SDS011;37569;50.548;8.778;2023-03-20T17:26:34;5.4;;;2.9;;
51491;SDS011;37569;50.548;8.778;2023-03-20T17:31:34;5.6;;;3;;
51491;SDS011;37569;50.548;8.778;2023-03-20T17:36:35;6.7;;;3.4;;
51491;SDS011;37569;50.548;8.778;2023-03-20T17:41:35;4.3;;;2.8;;
51491;SDS011;37569;50.548;8.778;2023-03-20T17:46:36;6;;;3.1;;
51491;SDS011;37569;50.548;8.778;2023-03-20T17:51:36;6.2;;;3.1;;
51491;SDS011;37569;50.548;8.778;2023-03-20T17:56:37;5.3;;;3.7;;
51491;SDS011;37569;50.548;8.778;2023-03-20T18:01:37;4.6;;;3.7;;
51491;SDS011;37569;50.548;8.778;2023-03-20T18:06:38;6.1;;;4;;
51491;SDS011;37569;50.548;8.778;2023-03-20T18:11:38;6.7;;;4.1;;
51491;SDS011;37569;50.548;8.778;2023-03-20T18:16:39;6.1;;;4.2;;
51491;SDS011;37569;50.548;8.778;2023-03-20T18:21:39;6.5;;;4;;
51491;SDS011;37569;50.548;8.778;2023-03-20T18:26:40;4.3;;;3.3;;
51491;SDS011;37569;50.548;8.778;2023-03-20T18:31:40;5.3;;;3.5;;
51491;SDS011;37569;50.548;8.778;2023-03-20T18:36:41;6.3;;;3.7;;
51491;SDS011;37569;50.548;8.778;2023-03-20T18:41:41;6.3;;;3.4;;
51491;SDS011;37569;50.548;8.778;2023-03-20T18:46:42;4.4;;;2.9;;
51491;SDS011;37569;50.548;8.778;2023-03-20T18:51:43;4.7;;;3.4;;
51491;SDS011;37569;50.548;8.778;2023-03-20T18:56:43;5.2;;;3.3;;
51491;SDS011;37569;50.548;8.778;2023-03-20T19:01:43;4.5;;;3.3;;
51491;SDS011;37569;50.548;8.778;2023-03-20T19:06:44;8.4;;;3.5;;
51491;SDS011;37569;50.548;8.778;2023-03-20T19:11:44;7.3;;;3.7;;
51491;SDS011;37569;50.548;8.778;2023-03-20T19:16:44;6.9;;;4.1;;
51491;SDS011;37569;50.548;8.778;2023-03-20T19:21:45;7.1;;;3.9;;
51491;SDS011;37569;50.548;8.778;2023-03-20T19:26:46;5.1;;;3.6;;
51491;SDS011;37569;50.548;8.778;2023-03-20T19:31:46;5.6;;;4;;
51491;SDS011;37569;50.548;8.778;2023-03-20T19:36:46;6.9;;;3.7;;
51491;SDS011;37569;50.548;8.778;2023-03-20T19:41:47;7.1;;;4;;
51491;SDS011;37569;50.548;8.778;2023-03-20T19:46:47;7.6;;;4.3;;
51491;SDS011;37569;50.548;8.778;2023-03-20T19:51:48;6.4;;;4.3;;
51491;SDS011;37569;50.548;8.778;2023-03-20T19:56:48;6.4;;;4.4;;
51491;SDS011;37569;50.548;8.778;2023-03-20T20:01:48;6.7;;;4.4;;
51491;SDS011;37569;50.548;8.778;2023-03-20T20:06:49;8.2;;;4.7;;
51491;SDS011;37569;50.548;8.778;2023-03-20T20:11:49;8.1;;;4.5;;
51491;SDS011;37569;50.548;8.778;2023-03-20T20:16:50;8.2;;;4;;
51491;SDS011;37569;50.548;8.778;2023-03-20T20:21:50;6.1;;;3.4;;
51491;SDS011;37569;50.548;8.778;2023-03-20T20:26:51;6.5;;;3.4;;
51491;SDS011;37569;50.548;8.778;2023-03-20T20:31:51;6.7;;;3.3;;
51491;SDS011;37569;50.548;8.778;2023-03-20T20:36:51;7.9;;;3.3;;
51491;SDS011;37569;50.548;8.778;2023-03-20T20:41:52;7.3;;;3.5;;
51491;SDS011;37569;50.548;8.778;2023-03-20T20:46:52;6.4;;;3.8;;
51491;SDS011;37569;50.548;8.778;2023-03-20T20:51:53;6.1;;;3.5;;
51491;SDS011;37569;50.548;8.778;2023-03-20T20:56:53;8.1;;;4.2;;
51491;SDS011;37569;50.548;8.778;2023-03-20T21:01:54;8.6;;;4;;
51491;SDS011;37569;50.548;8.778;2023-03-20T21:06:54;7.6;;;4.2;;
51491;SDS011;37569;50.548;8.778;2023-03-20T21:11:54;6.9;;;4.3;;
51491;SDS011;37569;50.548;8.778;2023-03-20T21:16:55;5.9;;;4.1;;
51491;SDS011;37569;50.548;8.778;2023-03-20T21:21:55;7.1;;;4.4;;
51491;SDS011;37569;50.548;8.778;2023-03-20T21:26:56;7.2;;;4.7;;
51491;SDS011;37569;50.548;8.778;2023-03-20T21:31:56;7.9;;;4.8;;
51491;SDS011;37569;50.548;8.778;2023-03-20T21:36:56;8.4;;;5.3;;
51491;SDS011;37569;50.548;8.778;2023-03-20T21:41:57;7.3;;;4.7;;
51491;SDS011;37569;50.548;8.778;2023-03-20T21:46:57;7.7;;;4.7;;
51491;SDS011;37569;50.548;8.778;2023-03-20T21:51:58;8.6;;;4.6;;
51491;SDS011;37569;50.548;8.778;2023-03-20T21:56:58;6.7;;;4.9;;
51491;SDS011;37569;50.548;8.778;2023-03-20T22:01:58;6.3;;;4.3;;
51491;SDS011;37569;50.548;8.778;2023-03-20T22:06:59;11.1;;;6.5;;
51491;SDS011;37569;50.548;8.778;2023-03-20T22:11:59;9.3;;;5;;
51491;SDS011;37569;50.548;8.778;2023-03-20T22:16:59;8.8;;;4.4;;
51491;SDS011;37569;50.548;8.778;2023-03-20T22:22:00;8.2;;;4.4;;
51491;SDS011;37569;50.548;8.778;2023-03-20T22:27:00;7.6;;;4.2;;
51491;SDS011;37569;50.548;8.778;2023-03-20T22:32:01;8.2;;;4.1;;
51491;SDS011;37569;50.548;8.778;2023-03-20T22:37:01;6.3;;;4.1;;
51491;SDS011;37569;50.548;8.778;2023-03-20T22:42:02;10;;;5.3;;
51491;SDS011;37569;50.548;8.778;2023-03-20T22:47:02;6.9;;;4.3;;
51491;SDS011;37569;50.548;8.778;2023-03-20T22:52:02;6;;;3.8;;
51491;SDS011;37569;50.548;8.778;2023-03-20T22:57:03;6.3;;;3.5;;
51491;SDS011;37569;50.548;8.778;2023-03-20T23:02:03;7.7;;;4;;
51491;SDS011;37569;50.548;8.778;2023-03-20T23:07:04;8.7;;;3.8;;
51491;SDS011;37569;50.548;8.778;2023-03-20T23:12:04;7.7;;;3.9;;
51491;SDS011;37569;50.548;8.778;2023-03-20T23:17:04;6.5;;;3.7;;
51491;SDS011;37569;50.548;8.778;2023-03-20T23:22:05;5.8;;;3.4;;
51491;SDS011;37569;50.548;8.778;2023-03-20T23:27:05;7.1;;;3.7;;
51491;SDS011;37569;50.548;8.778;2023-03-20T23:32:06;5.3;;;3.7;;
51491;SDS011;37569;50.548;8.778;2023-03-20T23:37:06;5.5;;;3.8;;
51491;SDS011;37569;50.548;8.778;2023-03-20T23:42:07;8.2;;;4;;
51491;SDS011;37569;50.548;8.778;2023-03-20T23:47:07;8.1;;;3.9;;
51491;SDS011;37569;50.548;8.778;2023-03-20T23:52:07;8.8;;;3.9;;
51491;SDS011;37569;50.548;8.778;2023-03-20T23:57:08;5.9;;;3.6;;
